createdAt,value
2023-04-03T00:01:48.177Z,4.07
2023-04-03T00:04:17.692Z,4.28
2023-04-03T00:06:47.239Z,4.13
2023-04-03T00:09:16.693Z,4.60
2023-04-03T00:11:46.144Z,5.63
2023-04-03T00:14:15.749Z,5.38
2023-04-03T00:16:45.242Z,5.65
2023-04-03T00:19:15.899Z,4.75
2023-04-03T00:21:45.378Z,5.97
2023-04-03T00:24:14.924Z,4.72
2023-04-03T00:26:44.318Z,4.95
2023-04-03T00:29:16.086Z,4.18
2023-04-03T00:31:45.506Z,4.60
2023-04-03T00:34:14.926Z,4.60
2023-04-03T00:36:44.415Z,3.72
2023-04-03T00:39:13.899Z,3.78
2023-04-03T00:41:44.685Z,3.63
2023-04-03T00:44:23.441Z,3.40
2023-04-03T00:46:52.936Z,3.90
2023-04-03T00:49:22.537Z,2.90
2023-04-03T00:51:52.223Z,3.53
2023-04-03T00:54:22.271Z,3.33
2023-04-03T00:56:52.406Z,3.67
2023-04-03T00:59:27.666Z,3.50
2023-04-03T01:01:58.823Z,4.82
2023-04-03T01:04:39.628Z,3.47
2023-04-03T01:07:30.536Z,3.30
2023-04-03T01:10:01.326Z,3.67
2023-04-03T01:12:33.199Z,3.17
2023-04-03T01:15:04.113Z,3.90
2023-04-03T01:17:40.010Z,3.28
2023-04-03T01:20:28.618Z,3.25
2023-04-03T01:23:10.785Z,3.97
2023-04-03T01:25:40.478Z,3.78
2023-04-03T01:28:11.819Z,3.50
2023-04-03T01:30:46.656Z,3.85
2023-04-03T01:33:18.913Z,3.72
2023-04-03T01:35:50.397Z,3.73
2023-04-03T01:38:20.377Z,3.75
2023-04-03T01:40:49.903Z,3.55
2023-04-03T01:43:19.585Z,3.35
2023-04-03T01:45:50.527Z,3.42
2023-04-03T01:48:20.923Z,3.70
2023-04-03T01:50:50.404Z,4.25
2023-04-03T01:53:20.092Z,3.97
2023-04-03T01:55:49.657Z,5.05
2023-04-03T01:58:19.185Z,4.85
2023-04-03T02:00:51.130Z,4.95
2023-04-03T02:03:20.570Z,5.65
2023-04-03T02:05:50.081Z,4.93
2023-04-03T02:08:20.448Z,4.43
2023-04-03T02:10:53.972Z,4.93
2023-04-03T02:13:23.497Z,4.78
2023-04-03T02:15:53.015Z,4.78
2023-04-03T02:18:22.544Z,4.88
2023-04-03T02:20:52.276Z,5.47
2023-04-03T02:23:21.725Z,6.25
2023-04-03T02:25:51.220Z,5.45
2023-04-03T02:28:20.733Z,5.35
2023-04-03T02:30:50.236Z,5.72
2023-04-03T02:33:19.705Z,5.53
2023-04-03T02:35:54.402Z,5.18
2023-04-03T02:38:25.717Z,4.10
2023-04-03T02:40:56.866Z,4.15
2023-04-03T02:43:26.333Z,3.65
2023-04-03T02:45:56.811Z,4.07
2023-04-03T02:48:26.831Z,3.60
2023-04-03T02:50:57.254Z,3.72
2023-04-03T02:53:26.846Z,3.10
2023-04-03T02:55:56.750Z,3.33
2023-04-03T02:58:26.307Z,3.13
2023-04-03T03:00:58.887Z,3.35
2023-04-03T03:03:28.386Z,3.15
2023-04-03T03:06:11.307Z,2.88
2023-04-03T03:08:41.523Z,4.22
2023-04-03T03:11:11.204Z,3.50
2023-04-03T03:13:40.694Z,3.38
2023-04-03T03:16:10.775Z,3.42
2023-04-03T03:18:40.252Z,3.40
2023-04-03T03:21:09.766Z,3.40
2023-04-03T03:23:39.274Z,2.50
2023-04-03T03:26:10.641Z,3.20
2023-04-03T03:28:40.402Z,3.97
2023-04-03T03:31:10.364Z,2.53
2023-04-03T03:33:42.017Z,2.60
2023-04-03T03:36:11.569Z,2.80
2023-04-03T03:38:41.315Z,3.10
2023-04-03T03:41:12.548Z,2.93
2023-04-03T03:43:42.663Z,3.38
2023-04-03T03:46:15.148Z,2.97
2023-04-03T03:48:44.603Z,2.67
2023-04-03T03:51:14.626Z,2.90
2023-04-03T03:53:44.137Z,2.63
2023-04-03T03:56:17.548Z,2.42
2023-04-03T03:58:48.362Z,2.70
2023-04-03T04:01:18.029Z,2.53
2023-04-03T04:03:52.324Z,3.20
2023-04-03T04:06:25.716Z,3.22
2023-04-03T04:08:57.149Z,4.07
2023-04-03T04:11:26.613Z,3.45
2023-04-03T04:13:57.860Z,3.55
2023-04-03T04:16:30.234Z,2.63
2023-04-03T04:19:03.652Z,2.72
2023-04-03T04:21:34.596Z,3.25
2023-04-03T04:24:04.342Z,3.00
2023-04-03T04:26:33.945Z,2.63
2023-04-03T04:29:04.201Z,2.58
2023-04-03T04:31:36.747Z,3.40
2023-04-03T04:34:07.132Z,2.38
2023-04-03T04:36:39.477Z,3.13
2023-04-03T04:39:09.829Z,2.13
2023-04-03T04:41:39.578Z,2.72
2023-04-03T04:44:09.574Z,2.72
2023-04-03T04:46:40.009Z,2.58
2023-04-03T04:49:11.384Z,2.97
2023-04-03T04:51:51.499Z,2.28
2023-04-03T04:54:26.187Z,2.67
2023-04-03T04:56:56.292Z,2.88
2023-04-03T04:59:25.974Z,2.45
2023-04-03T05:01:58.185Z,3.58
2023-04-03T05:04:29.102Z,2.72
2023-04-03T05:07:05.344Z,3.22
2023-04-03T05:09:37.792Z,2.83
2023-04-03T05:12:08.367Z,2.38
2023-04-03T05:14:43.512Z,2.17
2023-04-03T05:17:14.172Z,2.72
2023-04-03T05:19:48.114Z,2.50
2023-04-03T05:22:18.029Z,2.25
2023-04-03T05:24:47.984Z,2.55
2023-04-03T05:27:18.413Z,2.33
2023-04-03T05:29:53.215Z,3.25
2023-04-03T05:32:26.266Z,2.20
2023-04-03T05:35:04.806Z,2.28
2023-04-03T05:37:34.491Z,2.47
2023-04-03T05:40:04.438Z,2.42
2023-04-03T05:42:34.151Z,2.60
2023-04-03T05:45:03.653Z,2.80
2023-04-03T05:47:33.175Z,3.42
2023-04-03T05:50:03.020Z,2.78
2023-04-03T05:52:44.125Z,2.30
2023-04-03T05:55:14.189Z,2.70
2023-04-03T05:57:44.110Z,2.40
2023-04-03T06:00:16.900Z,2.55
2023-04-03T06:02:52.732Z,1.85
2023-04-03T06:05:26.500Z,2.40
2023-04-03T06:07:55.925Z,2.35
2023-04-03T06:10:25.474Z,1.85
2023-04-03T06:12:55.223Z,2.30
2023-04-03T06:15:24.671Z,2.00
2023-04-03T06:17:54.099Z,2.28
2023-04-03T06:20:23.810Z,2.55
2023-04-03T06:22:53.684Z,2.17
2023-04-03T06:25:23.189Z,1.75
2023-04-03T06:27:52.673Z,1.92
2023-04-03T06:30:22.140Z,2.33
2023-04-03T06:32:51.947Z,1.88
2023-04-03T06:35:22.168Z,2.58
2023-04-03T06:37:51.604Z,1.83
2023-04-03T06:40:23.355Z,2.08
2023-04-03T06:42:52.836Z,2.17
2023-04-03T06:45:23.324Z,2.75
2023-04-03T06:47:52.820Z,1.70
2023-04-03T06:50:22.267Z,2.20
2023-04-03T06:52:51.666Z,2.13
2023-04-03T06:55:21.694Z,2.58
2023-04-03T06:57:51.200Z,1.80
2023-04-03T07:00:21.195Z,2.38
2023-04-03T07:02:50.707Z,2.17
2023-04-03T07:05:20.231Z,1.83
2023-04-03T07:07:50.972Z,2.80
2023-04-03T07:10:20.605Z,1.98
2023-04-03T07:12:50.112Z,1.90
2023-04-03T07:15:19.559Z,2.20
2023-04-03T07:17:49.073Z,2.17
2023-04-03T07:20:18.887Z,2.00
2023-04-03T07:22:49.157Z,2.15
2023-04-03T07:25:18.633Z,1.70
2023-04-03T07:27:48.690Z,1.83
2023-04-03T07:30:18.259Z,1.85
2023-04-03T07:32:47.759Z,1.90
2023-04-03T07:35:17.612Z,2.00
2023-04-03T07:37:47.436Z,2.03
2023-04-03T07:40:18.100Z,2.03
2023-04-03T07:42:48.035Z,2.03
2023-04-03T07:45:18.528Z,1.75
2023-04-03T07:47:49.069Z,1.98
2023-04-03T07:50:18.957Z,1.55
2023-04-03T07:52:49.058Z,1.80
2023-04-03T07:55:18.551Z,2.00
2023-04-03T07:57:47.946Z,1.80
2023-04-03T08:00:18.655Z,2.35
2023-04-03T08:02:51.690Z,1.77
2023-04-03T08:05:25.033Z,2.53
2023-04-03T08:07:54.463Z,2.00
2023-04-03T08:10:23.883Z,1.73
2023-04-03T08:12:53.406Z,2.30
2023-04-03T08:15:22.907Z,2.00
2023-04-03T08:17:52.997Z,2.50
2023-04-03T08:20:22.543Z,1.88
2023-04-03T08:22:52.057Z,1.77
2023-04-03T08:25:21.752Z,2.15
2023-04-03T08:27:51.321Z,1.50
2023-04-03T08:30:20.920Z,1.70
2023-04-03T08:32:50.596Z,1.50
2023-04-03T08:35:21.651Z,2.03
2023-04-03T08:37:51.082Z,2.13
2023-04-03T08:40:20.789Z,1.38
2023-04-03T08:42:55.307Z,1.33
2023-04-03T08:45:42.098Z,1.10
2023-04-03T08:48:17.959Z,1.73
2023-04-03T08:50:50.079Z,1.60
2023-04-03T08:53:21.569Z,1.60
2023-04-03T08:55:52.593Z,1.65
2023-04-03T08:58:26.829Z,1.35
2023-04-03T09:01:22.738Z,1.38
2023-04-03T09:03:52.302Z,1.65
2023-04-03T09:06:24.733Z,1.42
2023-04-03T09:11:30.308Z,1.55
2023-04-03T09:14:15.118Z,1.10
2023-04-03T09:16:53.771Z,1.80
2023-04-03T09:19:26.330Z,1.10
2023-04-03T09:21:55.997Z,1.88
2023-04-03T09:24:26.579Z,1.52
2023-04-03T09:27:03.577Z,1.10
2023-04-03T09:29:33.630Z,1.50
2023-04-03T09:32:04.135Z,1.20
2023-04-03T09:34:39.248Z,1.13
2023-04-03T09:37:09.883Z,1.20
2023-04-03T09:39:57.254Z,1.00
2023-04-03T09:42:27.899Z,1.33
2023-04-03T09:44:59.528Z,1.08
2023-04-03T09:47:29.257Z,1.20
2023-04-03T09:50:19.481Z,1.30
2023-04-03T09:52:50.883Z,1.23
2023-04-03T09:55:23.143Z,1.23
2023-04-03T09:57:53.799Z,1.27
2023-04-03T10:00:25.528Z,1.10
2023-04-03T10:02:56.175Z,0.82
2023-04-03T10:05:41.796Z,0.90
2023-04-03T10:08:24.735Z,1.08
2023-04-03T10:11:11.077Z,0.80
2023-04-03T10:13:53.425Z,0.98
2023-04-03T10:16:28.480Z,1.00
2023-04-03T10:19:07.367Z,1.05
2023-04-03T10:21:54.681Z,1.13
2023-04-03T10:24:33.315Z,0.63
2023-04-03T10:27:21.094Z,1.33
2023-04-03T10:30:04.718Z,1.25
2023-04-03T10:32:38.411Z,1.02
2023-04-03T10:35:16.026Z,1.02
2023-04-03T10:38:04.421Z,1.00
2023-04-03T10:40:43.086Z,0.90
2023-04-03T10:43:16.083Z,1.00
2023-04-03T10:45:58.038Z,0.95
2023-04-03T10:48:35.104Z,1.48
2023-04-03T10:51:08.560Z,2.25
2023-04-03T10:53:42.912Z,1.63
2023-04-03T10:56:31.144Z,0.90
2023-04-03T10:59:21.370Z,1.08
2023-04-03T11:01:59.886Z,0.90
2023-04-03T11:04:31.676Z,1.13
2023-04-03T11:07:13.680Z,1.08
2023-04-03T11:09:44.905Z,1.50
2023-04-03T11:12:16.964Z,1.33
2023-04-03T11:14:46.985Z,1.00
2023-04-03T11:17:22.963Z,1.00
2023-04-03T11:19:58.644Z,0.85
2023-04-03T11:22:28.083Z,1.08
2023-04-03T11:25:21.070Z,1.90
2023-04-03T11:27:53.501Z,0.93
2023-04-03T11:33:11.387Z,1.00
2023-04-03T11:35:41.996Z,1.48
2023-04-03T11:38:18.155Z,1.25
2023-04-03T11:40:48.046Z,1.50
2023-04-03T11:43:30.548Z,0.90
2023-04-03T11:48:34.306Z,1.38
2023-04-03T11:51:27.830Z,1.50
2023-04-03T11:53:57.502Z,1.38
2023-04-03T11:56:26.991Z,1.35
2023-04-03T11:59:08.900Z,1.23
2023-04-03T12:01:48.896Z,1.60
2023-04-03T12:04:19.356Z,1.27
2023-04-03T12:06:50.043Z,1.13
2023-04-03T12:09:26.910Z,0.90
2023-04-03T12:11:56.446Z,1.15
2023-04-03T12:14:27.918Z,1.35
2023-04-03T12:16:59.166Z,1.20
2023-04-03T12:19:42.506Z,1.10
2023-04-03T12:22:21.787Z,0.90
2023-04-03T12:24:53.773Z,2.03
2023-04-03T12:27:34.330Z,1.23
2023-04-03T12:30:08.061Z,1.20
2023-04-03T12:32:46.549Z,1.30
2023-04-03T12:35:35.396Z,1.33
2023-04-03T12:38:31.069Z,1.05
2023-04-03T12:41:00.585Z,1.17
2023-04-03T12:43:41.476Z,1.40
2023-04-03T12:46:11.196Z,1.40
2023-04-03T12:49:00.830Z,1.40
2023-04-03T12:51:30.433Z,1.13
2023-04-03T12:54:07.901Z,1.25
2023-04-03T12:56:37.641Z,1.27
2023-04-03T12:59:26.421Z,1.33
2023-04-03T13:01:58.935Z,1.20
2023-04-03T13:04:28.676Z,1.33
2023-04-03T13:06:58.289Z,1.20
2023-04-03T13:09:32.144Z,1.30
2023-04-03T13:12:03.271Z,1.33
2023-04-03T13:14:34.497Z,1.20
2023-04-03T13:17:08.105Z,1.15
2023-04-03T13:19:37.725Z,1.23
2023-04-03T13:22:14.893Z,1.05
2023-04-03T13:24:44.441Z,1.20
2023-04-03T13:27:15.516Z,2.00
2023-04-03T13:29:45.108Z,1.75
2023-04-03T13:32:21.747Z,1.77
2023-04-03T13:34:51.290Z,1.55
2023-04-03T13:37:25.418Z,1.50
2023-04-03T13:40:07.584Z,1.73
2023-04-03T13:42:38.757Z,1.70
2023-04-03T13:45:20.997Z,1.42
2023-04-03T13:47:52.393Z,1.52
2023-04-03T13:50:26.469Z,1.25
2023-04-03T13:52:57.544Z,1.40
2023-04-03T13:55:32.523Z,1.27
2023-04-03T13:58:04.287Z,1.55
2023-04-03T14:00:36.568Z,1.48
2023-04-03T14:03:06.086Z,1.60
2023-04-03T14:05:35.880Z,1.58
2023-04-03T14:08:05.624Z,1.40
2023-04-03T14:10:35.083Z,1.38
2023-04-03T14:13:04.452Z,1.30
2023-04-03T14:15:35.154Z,1.25
2023-04-03T14:18:06.637Z,1.55
2023-04-03T14:20:37.432Z,1.48
2023-04-03T14:23:07.508Z,1.40
2023-04-03T14:25:37.164Z,1.88
2023-04-03T14:28:19.434Z,1.63
2023-04-03T14:30:49.880Z,1.38
2023-04-03T14:33:20.944Z,1.25
2023-04-03T14:35:50.762Z,1.52
2023-04-03T14:38:28.383Z,1.58
2023-04-03T14:41:06.312Z,1.80
2023-04-03T14:43:43.423Z,1.40
2023-04-03T14:46:16.534Z,1.60
2023-04-03T14:48:46.719Z,1.40
2023-04-03T14:51:17.038Z,1.65
2023-04-03T14:53:47.904Z,1.52
2023-04-03T14:56:29.145Z,1.88
2023-04-03T14:59:04.059Z,1.50
2023-04-03T15:01:34.212Z,1.58
2023-04-03T15:04:03.770Z,1.90
2023-04-03T15:06:33.372Z,1.60
2023-04-03T15:09:03.476Z,1.30
2023-04-03T15:11:32.939Z,1.55
2023-04-03T15:14:02.384Z,1.70
2023-04-03T15:16:32.051Z,1.77
2023-04-03T15:19:01.575Z,1.60
2023-04-03T15:21:31.081Z,2.00
2023-04-03T15:24:02.088Z,1.45
2023-04-03T15:26:31.680Z,2.05
2023-04-03T15:29:01.187Z,1.83
2023-04-03T15:31:31.219Z,1.60
2023-04-03T15:34:00.720Z,1.42
2023-04-03T15:36:34.478Z,1.60
2023-04-03T15:39:04.455Z,1.48
2023-04-03T15:41:33.856Z,1.40
2023-04-03T15:44:03.322Z,1.40
2023-04-03T15:46:32.969Z,1.70
2023-04-03T15:49:02.420Z,1.50
2023-04-03T15:51:31.795Z,1.42
2023-04-03T15:54:01.209Z,1.85
2023-04-03T15:56:30.671Z,1.55
2023-04-03T15:59:00.097Z,1.80
2023-04-03T16:01:29.655Z,1.50
2023-04-03T16:03:59.323Z,1.60
2023-04-03T16:06:30.543Z,1.58
2023-04-03T16:09:00.302Z,2.35
2023-04-03T16:11:29.936Z,1.45
2023-04-03T16:13:59.389Z,2.13
2023-04-03T16:16:29.716Z,1.70
2023-04-03T16:18:59.646Z,1.50
2023-04-03T16:21:30.452Z,1.70
2023-04-03T16:24:01.071Z,1.58
2023-04-03T16:26:30.625Z,1.55
2023-04-03T16:29:00.059Z,1.55
2023-04-03T16:31:29.810Z,2.10
2023-04-03T16:33:59.635Z,2.35
2023-04-03T16:36:29.415Z,1.83
2023-04-03T16:38:58.922Z,1.42
2023-04-03T16:41:28.341Z,1.60
2023-04-03T16:43:57.788Z,2.40
2023-04-03T16:46:27.244Z,1.83
2023-04-03T16:48:56.810Z,1.88
2023-04-03T16:51:26.482Z,1.50
2023-04-03T16:53:56.001Z,1.30
2023-04-03T16:56:26.291Z,1.55
2023-04-03T16:58:56.330Z,1.63
2023-04-03T17:01:26.601Z,1.63
2023-04-03T17:03:56.262Z,1.70
2023-04-03T17:06:26.010Z,1.98
2023-04-03T17:08:55.792Z,1.73
2023-04-03T17:11:31.459Z,1.40
2023-04-03T17:14:00.929Z,1.50
2023-04-03T17:16:30.401Z,1.83
2023-04-03T17:19:01.405Z,1.80
2023-04-03T17:21:30.849Z,1.55
2023-04-03T17:24:02.635Z,1.50
2023-04-03T17:26:32.138Z,1.60
2023-04-03T17:29:01.540Z,2.53
2023-04-03T17:31:31.096Z,1.75
2023-04-03T17:34:01.893Z,1.60
2023-04-03T17:36:32.371Z,1.50
2023-04-03T17:39:01.809Z,1.70
2023-04-03T17:41:31.185Z,1.65
2023-04-03T17:44:00.652Z,1.50
2023-04-03T17:46:31.387Z,1.73
2023-04-03T17:49:03.496Z,1.85
2023-04-03T17:51:34.611Z,1.63
2023-04-03T17:54:04.334Z,1.60
2023-04-03T17:56:33.779Z,1.73
2023-04-03T17:59:03.236Z,1.60
2023-04-03T18:01:34.148Z,1.70
2023-04-03T18:04:04.887Z,1.63
2023-04-03T18:06:35.644Z,1.70
2023-04-03T18:09:16.401Z,1.65
2023-04-03T18:11:47.232Z,1.60
2023-04-03T18:14:18.855Z,1.52
2023-04-03T18:16:48.344Z,1.55
2023-04-03T18:19:23.466Z,1.90
2023-04-03T18:21:58.339Z,1.85
2023-04-03T18:24:28.087Z,1.60
2023-04-03T18:26:59.922Z,2.00
2023-04-03T18:29:30.253Z,2.05
2023-04-03T18:32:00.053Z,1.58
2023-04-03T18:34:29.581Z,1.70
2023-04-03T18:37:00.251Z,1.90
2023-04-03T18:39:29.652Z,1.40
2023-04-03T18:42:00.153Z,2.15
2023-04-03T18:44:30.569Z,1.60
2023-04-03T18:47:00.752Z,2.08
2023-04-03T18:49:34.540Z,1.95
2023-04-03T18:52:04.675Z,2.00
2023-04-03T18:54:37.400Z,1.77
2023-04-03T18:57:07.185Z,1.60
2023-04-03T18:59:37.757Z,2.10
2023-04-03T19:02:08.220Z,2.08
2023-04-03T19:04:38.083Z,1.85
2023-04-03T19:07:07.554Z,1.80
2023-04-03T19:09:38.857Z,2.00
2023-04-03T19:12:09.332Z,1.60
2023-04-03T19:14:38.778Z,1.83
2023-04-03T19:17:09.134Z,2.15
2023-04-03T19:19:38.890Z,2.03
2023-04-03T19:22:08.769Z,1.83
2023-04-03T19:24:38.468Z,2.20
2023-04-03T19:27:07.835Z,1.50
2023-04-03T19:29:37.298Z,2.22
2023-04-03T19:32:06.808Z,2.00
2023-04-03T19:34:36.789Z,1.88
2023-04-03T19:37:06.262Z,1.35
2023-04-03T19:39:36.156Z,1.60
2023-04-03T19:42:06.263Z,1.92
2023-04-03T19:44:36.783Z,1.90
2023-04-03T19:47:06.752Z,1.85
2023-04-03T19:49:36.153Z,2.00
2023-04-03T19:52:05.530Z,2.10
2023-04-03T19:54:34.939Z,1.83
2023-04-03T19:57:04.423Z,1.88
2023-04-03T19:59:33.941Z,2.05
2023-04-03T20:02:03.567Z,2.65
2023-04-03T20:04:33.134Z,2.17
2023-04-03T20:07:03.015Z,2.40
2023-04-03T20:09:33.180Z,1.90
2023-04-03T20:12:03.053Z,2.08
2023-04-03T20:14:32.884Z,2.13
2023-04-03T20:17:02.326Z,2.13
2023-04-03T20:19:32.196Z,2.55
2023-04-03T20:22:03.479Z,1.60
2023-04-03T20:24:33.511Z,2.33
2023-04-03T20:27:02.998Z,2.20
2023-04-03T20:29:32.581Z,2.22
2023-04-03T20:32:02.185Z,2.60
2023-04-03T20:34:32.695Z,2.22
2023-04-03T20:37:02.358Z,2.03
2023-04-03T20:39:31.898Z,2.03
2023-04-03T20:42:01.325Z,2.33
2023-04-03T20:44:30.936Z,2.20
2023-04-03T20:47:00.783Z,2.47
2023-04-03T20:49:30.182Z,2.85
2023-04-03T20:51:59.585Z,2.10
2023-04-03T20:54:28.972Z,3.00
2023-04-03T20:56:59.036Z,2.40
2023-04-03T20:59:29.178Z,2.40
2023-04-03T21:01:58.710Z,2.30
2023-04-03T21:04:34.370Z,2.45
2023-04-03T21:07:25.769Z,2.22
2023-04-03T21:10:14.476Z,2.08
2023-04-03T21:13:03.330Z,1.90
2023-04-03T21:15:52.595Z,2.40
2023-04-03T21:18:28.411Z,2.28
2023-04-03T21:20:58.036Z,3.15
2023-04-03T21:23:28.540Z,2.92
2023-04-03T21:25:57.971Z,3.28
2023-04-03T21:28:27.598Z,2.83
2023-04-03T21:30:57.075Z,2.65
2023-04-03T21:33:26.496Z,3.38
2023-04-03T21:35:58.730Z,2.10
2023-04-03T21:38:28.899Z,2.70
2023-04-03T21:41:01.793Z,2.55
2023-04-03T21:43:31.225Z,3.08
2023-04-03T21:46:01.310Z,3.47
2023-04-03T21:48:31.979Z,4.82
2023-04-03T21:51:08.453Z,4.05
2023-04-03T21:53:38.946Z,3.67
2023-04-03T21:56:08.595Z,3.92
2023-04-03T21:58:38.127Z,4.13
2023-04-03T22:01:11.954Z,3.22
2023-04-03T22:03:41.973Z,3.10
2023-04-03T22:06:11.805Z,3.00
2023-04-03T22:08:41.467Z,3.28
2023-04-03T22:11:12.955Z,3.25
2023-04-03T22:13:42.412Z,3.83
2023-04-03T22:16:13.873Z,4.00
2023-04-03T22:18:43.384Z,5.13
2023-04-03T22:21:12.897Z,3.78
2023-04-03T22:23:43.813Z,3.88
2023-04-03T22:26:14.117Z,2.85
2023-04-03T22:28:44.955Z,3.05
2023-04-03T22:31:15.034Z,2.58
2023-04-03T22:33:45.074Z,2.63
2023-04-03T22:36:15.240Z,2.60
2023-04-03T22:38:46.960Z,2.10
2023-04-03T22:41:16.686Z,2.42
2023-04-03T22:43:46.077Z,2.47
2023-04-03T22:46:15.516Z,3.20
2023-04-03T22:48:45.519Z,2.65
2023-04-03T22:51:15.225Z,2.90
2023-04-03T22:53:44.690Z,2.80
2023-04-03T22:56:14.160Z,2.40
2023-04-03T22:58:45.302Z,3.42
2023-04-03T23:01:16.058Z,3.90
2023-04-03T23:03:45.702Z,4.65
2023-04-03T23:06:15.942Z,3.92
2023-04-03T23:08:45.406Z,4.07
2023-04-03T23:11:14.802Z,3.75
2023-04-03T23:13:44.234Z,4.00
2023-04-03T23:16:13.862Z,3.78
2023-04-03T23:18:43.905Z,4.72
2023-04-03T23:21:16.050Z,4.00
2023-04-03T23:23:45.424Z,4.22
2023-04-03T23:26:14.801Z,4.78
2023-04-03T23:28:44.796Z,3.47
2023-04-03T23:31:14.170Z,3.88
2023-04-03T23:33:44.624Z,2.47
2023-04-03T23:36:16.183Z,3.20
2023-04-03T23:38:45.869Z,3.03
2023-04-03T23:41:15.603Z,2.75
2023-04-03T23:43:46.553Z,2.45
2023-04-03T23:46:15.982Z,2.28
2023-04-03T23:48:45.401Z,2.65
2023-04-03T23:51:14.723Z,2.42
2023-04-03T23:53:44.194Z,2.15
2023-04-03T23:56:14.830Z,2.35
2023-04-03T23:58:44.363Z,2.63
